Saundersville, North Dakota
Current Conditions -  °F | °C
As of 11:15 AM on Thursday 30 Oct 2014 (Local Time) from K5H4 Reporting Station
NA  
Wind Chill: 22°   Ceiling: NA
Heat Index: 32°   Visibility: 10mi
Dew Point: 32°   Wind: 14mph
Humidity: 100%   Direction: 20°NNE
Pressure: 30.35"   Gusts: 20mph
Location:  47.7822°N, 99.8441°W
Report Text: K5H4 301615Z AUTO 02012G17KT 10SM 00/00 A3035 RMK AO2
Loading
Personal Weather Stations






























Interactive Weather Map
Tropical Storm Tracking
New forecast layout! Learn more

10-Day Weather Forecast

Advertisements
Track Severe Weather on mobile